createdAt,value
2023-05-14T00:00:29.689Z,15.27
2023-05-14T00:02:56.685Z,13.75
2023-05-14T00:05:23.725Z,14.45
2023-05-14T00:07:50.618Z,14.77
2023-05-14T00:10:19.065Z,14.63
2023-05-14T00:12:46.010Z,16.27
2023-05-14T00:15:12.839Z,14.30
2023-05-14T00:17:39.828Z,15.10
2023-05-14T00:20:07.200Z,12.18
2023-05-14T00:22:34.495Z,14.98
2023-05-14T00:25:01.353Z,15.43
2023-05-14T00:27:28.160Z,15.57
2023-05-14T00:29:55.031Z,15.18
2023-05-14T00:32:21.859Z,15.98
2023-05-14T00:34:48.836Z,15.98
2023-05-14T00:37:15.643Z,15.40
2023-05-14T00:39:42.495Z,15.90
2023-05-14T00:42:09.445Z,17.67
2023-05-14T00:44:36.397Z,16.08
2023-05-14T00:47:03.349Z,17.45
2023-05-14T00:49:30.593Z,13.75
2023-05-14T00:51:59.083Z,15.07
2023-05-14T00:54:26.309Z,14.40
2023-05-14T00:56:53.336Z,16.58
2023-05-14T00:59:20.270Z,19.08
2023-05-14T01:01:47.166Z,18.48
2023-05-14T01:04:13.989Z,16.45
2023-05-14T01:07:01.911Z,17.42
2023-05-14T01:09:31.517Z,16.88
2023-05-14T01:12:18.322Z,13.05
2023-05-14T01:15:06.622Z,16.23
2023-05-14T01:17:33.927Z,14.98
2023-05-14T01:20:00.880Z,15.90
2023-05-14T01:22:27.727Z,17.10
2023-05-14T01:24:54.618Z,17.42
2023-05-14T01:27:39.184Z,17.42
2023-05-14T01:30:11.370Z,17.75
2023-05-14T01:32:39.140Z,20.27
2023-05-14T01:35:07.334Z,19.67
2023-05-14T01:37:34.250Z,17.83
2023-05-14T01:40:01.104Z,17.65
2023-05-14T01:42:27.964Z,19.70
2023-05-14T01:44:55.532Z,19.27
2023-05-14T01:47:22.698Z,20.58
2023-05-14T01:49:49.811Z,18.33
2023-05-14T01:52:17.068Z,21.20
2023-05-14T01:54:43.868Z,21.73
2023-05-14T01:57:10.764Z,22.17
2023-05-14T01:59:37.560Z,21.65
2023-05-14T02:02:04.629Z,24.20
2023-05-14T02:04:31.492Z,20.52
2023-05-14T02:06:58.677Z,20.58
2023-05-14T02:09:25.655Z,23.50
2023-05-14T02:11:52.428Z,22.90
2023-05-14T02:14:19.276Z,21.95
2023-05-14T02:16:46.258Z,21.75
2023-05-14T02:19:13.246Z,21.45
2023-05-14T02:21:40.229Z,21.23
2023-05-14T02:24:07.139Z,21.77
2023-05-14T02:26:34.220Z,23.13
2023-05-14T02:29:01.169Z,24.63
2023-05-14T02:31:27.983Z,22.42
2023-05-14T02:33:54.814Z,21.52
2023-05-14T02:36:21.633Z,23.08
2023-05-14T02:38:48.548Z,24.67
2023-05-14T02:41:15.305Z,20.92
2023-05-14T02:43:42.138Z,20.73
2023-05-14T02:46:09.072Z,26.23
2023-05-14T02:48:35.866Z,25.75
2023-05-14T02:51:02.751Z,24.08
2023-05-14T02:53:29.598Z,22.80
2023-05-14T02:55:56.394Z,23.05
2023-05-14T02:58:26.471Z,20.05
2023-05-14T03:00:55.377Z,20.05
2023-05-14T03:03:22.733Z,28.23
2023-05-14T03:05:50.160Z,21.67
2023-05-14T03:08:16.954Z,24.30
2023-05-14T03:10:43.738Z,21.88
2023-05-14T03:13:10.660Z,24.38
2023-05-14T03:15:37.467Z,20.77
2023-05-14T03:18:04.349Z,21.88
2023-05-14T03:20:31.101Z,23.27
2023-05-14T03:22:58.013Z,23.60
2023-05-14T03:25:24.809Z,23.70
2023-05-14T03:27:51.594Z,23.60
2023-05-14T03:30:18.491Z,23.88
2023-05-14T03:32:45.470Z,24.42
2023-05-14T03:35:12.250Z,25.38
2023-05-14T03:37:39.075Z,25.48
2023-05-14T03:40:06.780Z,21.23
2023-05-14T03:42:36.416Z,24.75
2023-05-14T03:45:03.462Z,21.80
2023-05-14T03:47:30.337Z,21.02
2023-05-14T03:49:58.085Z,23.92
2023-05-14T03:52:24.935Z,22.35
2023-05-14T03:54:51.866Z,22.95
2023-05-14T03:57:18.651Z,20.17
2023-05-14T03:59:45.549Z,21.83
2023-05-14T04:02:13.243Z,24.10
2023-05-14T04:04:41.085Z,23.05
2023-05-14T04:07:08.911Z,22.45
2023-05-14T04:09:35.909Z,23.33
2023-05-14T04:12:02.795Z,21.15
2023-05-14T04:14:29.647Z,22.33
2023-05-14T04:16:56.496Z,20.63
2023-05-14T04:19:23.759Z,19.63
2023-05-14T04:21:50.674Z,23.25
2023-05-14T04:24:17.520Z,21.98
2023-05-14T04:26:44.327Z,21.65
2023-05-14T04:29:11.119Z,21.08
2023-05-14T04:31:37.989Z,20.63
2023-05-14T04:34:04.806Z,19.45
2023-05-14T04:36:31.656Z,20.98
2023-05-14T04:38:58.427Z,20.40
2023-05-14T04:41:25.360Z,19.20
2023-05-14T04:43:53.569Z,20.63
2023-05-14T04:46:20.622Z,19.48
2023-05-14T04:48:48.298Z,18.55
2023-05-14T04:51:15.064Z,17.85
2023-05-14T04:53:41.977Z,20.77
2023-05-14T04:56:08.727Z,19.33
2023-05-14T04:58:35.635Z,25.60
2023-05-14T05:01:04.936Z,22.23
2023-05-14T05:03:32.281Z,20.95
2023-05-14T05:05:59.106Z,23.67
2023-05-14T05:08:26.410Z,33.50
2023-05-14T05:10:53.221Z,21.75
2023-05-14T05:13:21.239Z,21.77
2023-05-14T05:15:48.084Z,20.65
2023-05-14T05:18:15.006Z,19.67
2023-05-14T05:20:41.949Z,21.30
2023-05-14T05:23:08.699Z,18.98
2023-05-14T05:25:35.556Z,20.25
2023-05-14T05:28:02.467Z,18.17
2023-05-14T05:30:30.224Z,18.40
2023-05-14T05:32:57.634Z,20.15
2023-05-14T05:35:27.011Z,17.73
2023-05-14T05:37:53.859Z,17.38
2023-05-14T05:40:20.744Z,18.75
2023-05-14T05:42:47.566Z,17.40
2023-05-14T05:45:14.348Z,15.68
2023-05-14T05:47:41.261Z,18.08
2023-05-14T05:50:09.732Z,16.65
2023-05-14T05:52:36.702Z,15.73
2023-05-14T05:55:03.805Z,15.30
2023-05-14T05:57:30.686Z,18.85
2023-05-14T05:59:58.078Z,15.20
2023-05-14T06:02:25.270Z,17.00
2023-05-14T06:04:53.207Z,16.58
2023-05-14T06:07:20.179Z,17.75
2023-05-14T06:09:47.047Z,16.48
2023-05-14T06:12:13.823Z,18.08
2023-05-14T06:14:40.632Z,16.10
2023-05-14T06:17:07.690Z,17.42
2023-05-14T06:19:34.530Z,15.07
2023-05-14T06:22:01.283Z,15.93
2023-05-14T06:24:28.059Z,18.23
2023-05-14T06:26:55.081Z,17.92
2023-05-14T06:29:21.931Z,19.75
2023-05-14T06:31:48.894Z,18.92
2023-05-14T06:34:15.764Z,18.20
2023-05-14T06:36:42.618Z,18.00
2023-05-14T06:39:09.857Z,18.70
2023-05-14T06:41:36.715Z,18.98
2023-05-14T06:44:03.726Z,18.15
2023-05-14T06:46:30.661Z,18.05
2023-05-14T06:48:59.361Z,17.40
2023-05-14T06:51:26.475Z,16.33
2023-05-14T06:53:54.320Z,16.55
2023-05-14T06:56:22.025Z,16.25
2023-05-14T06:58:48.947Z,17.17
2023-05-14T07:01:16.782Z,18.10
2023-05-14T07:03:43.673Z,18.30
2023-05-14T07:06:12.511Z,16.50
2023-05-14T07:08:40.846Z,18.55
2023-05-14T07:11:07.678Z,16.55
2023-05-14T07:13:34.504Z,17.35
2023-05-14T07:16:01.398Z,15.85
2023-05-14T07:18:28.912Z,16.48
2023-05-14T07:20:55.823Z,18.77
2023-05-14T07:23:22.717Z,16.77
2023-05-14T07:25:49.655Z,19.65
2023-05-14T07:28:16.474Z,16.25
2023-05-14T07:30:43.350Z,18.17
2023-05-14T07:33:10.153Z,17.85
2023-05-14T07:35:36.992Z,17.63
2023-05-14T07:38:05.675Z,16.75
2023-05-14T07:40:32.446Z,16.63
2023-05-14T07:42:59.222Z,17.38
2023-05-14T07:45:26.023Z,16.13
2023-05-14T07:47:52.964Z,14.68
2023-05-14T07:50:19.857Z,16.58
2023-05-14T07:52:46.751Z,17.23
2023-05-14T07:55:13.530Z,16.27
2023-05-14T07:57:40.349Z,16.08
2023-05-14T08:00:11.248Z,17.52
2023-05-14T08:02:41.060Z,14.07
2023-05-14T08:05:08.352Z,15.10
2023-05-14T08:07:35.229Z,18.02
2023-05-14T08:10:02.191Z,16.75
2023-05-14T08:12:29.891Z,17.33
2023-05-14T08:14:56.760Z,16.73
2023-05-14T08:17:23.810Z,18.02
2023-05-14T08:19:50.682Z,18.42
2023-05-14T08:22:17.477Z,17.33
2023-05-14T08:24:44.343Z,18.50
2023-05-14T08:27:11.174Z,19.25
2023-05-14T08:29:37.956Z,17.75
2023-05-14T08:32:15.474Z,19.02
2023-05-14T08:34:49.370Z,17.17
2023-05-14T08:37:16.221Z,19.85
2023-05-14T08:39:43.019Z,18.08
2023-05-14T08:42:09.936Z,16.08
2023-05-14T08:44:39.922Z,16.73
2023-05-14T08:47:06.742Z,16.42
2023-05-14T08:49:43.466Z,16.17
2023-05-14T08:52:10.706Z,17.60
2023-05-14T08:54:37.728Z,18.48
2023-05-14T08:57:05.146Z,17.90
2023-05-14T08:59:33.095Z,16.20
2023-05-14T09:02:03.019Z,17.35
2023-05-14T09:04:30.111Z,20.33
2023-05-14T09:06:56.989Z,16.40
2023-05-14T09:09:23.947Z,16.55
2023-05-14T09:11:52.060Z,14.13
2023-05-14T09:14:19.130Z,17.30
2023-05-14T09:16:48.138Z,16.20
2023-05-14T09:19:15.738Z,14.93
2023-05-14T09:21:42.853Z,15.23
2023-05-14T09:24:09.721Z,17.35
2023-05-14T09:26:36.594Z,17.23
2023-05-14T09:29:03.781Z,14.38
2023-05-14T09:31:31.898Z,12.07
2023-05-14T09:33:59.287Z,15.00
2023-05-14T09:36:27.210Z,13.98
2023-05-14T09:38:57.785Z,17.08
2023-05-14T09:41:24.994Z,14.98
2023-05-14T09:43:51.997Z,15.25
2023-05-14T09:46:18.774Z,15.18
2023-05-14T09:48:48.576Z,17.02
2023-05-14T09:51:17.573Z,14.73
2023-05-14T09:53:44.704Z,17.25
2023-05-14T09:56:11.611Z,14.88
2023-05-14T09:58:38.462Z,13.55
2023-05-14T10:01:05.385Z,14.27
2023-05-14T10:03:32.302Z,14.55
2023-05-14T10:06:04.741Z,17.38
2023-05-14T10:08:34.597Z,17.30
2023-05-14T10:11:03.668Z,16.48
2023-05-14T10:13:40.640Z,14.43
2023-05-14T10:16:15.921Z,13.50
2023-05-14T10:18:48.571Z,15.10
2023-05-14T10:21:15.738Z,13.30
2023-05-14T10:23:42.646Z,13.82
2023-05-14T10:26:09.552Z,12.45
2023-05-14T10:28:36.679Z,15.27
2023-05-14T10:31:03.781Z,15.88
2023-05-14T10:33:30.858Z,13.35
2023-05-14T10:36:02.148Z,12.68
2023-05-14T10:38:32.826Z,15.40
2023-05-14T10:41:01.969Z,13.38
2023-05-14T10:43:30.705Z,15.85
2023-05-14T10:45:58.477Z,12.60
2023-05-14T10:48:25.515Z,12.68
2023-05-14T10:50:52.507Z,13.48
2023-05-14T10:53:19.512Z,12.77
2023-05-14T10:55:46.328Z,15.27
2023-05-14T10:58:13.235Z,12.02
2023-05-14T11:00:40.807Z,16.80
2023-05-14T11:03:07.849Z,15.52
2023-05-14T11:05:37.240Z,14.57
2023-05-14T11:08:06.783Z,13.07
2023-05-14T11:10:33.757Z,14.45
2023-05-14T11:13:00.686Z,13.02
2023-05-14T11:15:28.498Z,13.68
2023-05-14T11:17:55.396Z,13.63
2023-05-14T11:20:22.382Z,14.48
2023-05-14T11:22:51.755Z,13.75
2023-05-14T11:25:18.967Z,12.65
2023-05-14T11:27:46.629Z,13.88
2023-05-14T11:30:17.588Z,13.38
2023-05-14T11:32:45.761Z,11.25
2023-05-14T11:35:13.477Z,12.88
2023-05-14T11:37:40.361Z,13.80
2023-05-14T11:40:09.877Z,16.73
2023-05-14T11:42:37.218Z,11.73
2023-05-14T11:45:04.510Z,12.57
2023-05-14T11:47:31.892Z,12.57
2023-05-14T11:49:59.851Z,12.63
2023-05-14T11:52:26.675Z,12.23
2023-05-14T11:54:53.542Z,11.98
2023-05-14T11:57:23.780Z,13.05
2023-05-14T11:59:57.126Z,14.32
2023-05-14T12:04:52.269Z,11.25
2023-05-14T12:07:19.467Z,13.23
2023-05-14T12:09:50.598Z,12.30
2023-05-14T12:12:23.340Z,13.95
2023-05-14T12:14:50.572Z,13.90
2023-05-14T12:17:23.818Z,15.30
2023-05-14T12:19:53.876Z,12.90
2023-05-14T12:22:22.155Z,12.90
2023-05-14T12:25:00.679Z,11.65
2023-05-14T12:27:28.179Z,27.60
2023-05-14T12:30:20.508Z,12.27
2023-05-14T12:32:52.744Z,11.52
2023-05-14T12:35:21.153Z,13.63
2023-05-14T12:37:48.040Z,18.05
2023-05-14T12:40:15.008Z,12.93
2023-05-14T12:42:42.146Z,14.30
2023-05-14T12:45:09.245Z,14.63
2023-05-14T12:47:36.783Z,12.98
2023-05-14T12:50:04.201Z,12.70
2023-05-14T12:55:01.523Z,13.18
2023-05-14T12:57:29.741Z,11.00
2023-05-14T12:59:56.831Z,12.13
2023-05-14T13:02:23.686Z,17.83
2023-05-14T13:04:50.566Z,11.90
2023-05-14T13:07:17.342Z,11.50
2023-05-14T13:09:44.093Z,12.55
2023-05-14T13:12:11.043Z,16.27
2023-05-14T13:14:37.813Z,12.52
2023-05-14T13:17:05.215Z,16.02
2023-05-14T13:19:32.094Z,13.30
2023-05-14T13:21:59.168Z,12.27
2023-05-14T13:24:26.125Z,12.00
2023-05-14T13:26:52.989Z,47.03
2023-05-14T13:29:19.802Z,24.45
2023-05-14T13:31:46.623Z,18.25
2023-05-14T13:34:13.453Z,20.58
2023-05-14T13:36:43.521Z,16.08
2023-05-14T13:39:14.425Z,15.27
2023-05-14T13:41:41.675Z,13.35
2023-05-14T13:44:08.531Z,12.77
2023-05-14T13:46:35.385Z,14.80
2023-05-14T13:49:02.357Z,13.10
2023-05-14T13:51:29.224Z,13.32
2023-05-14T13:53:56.256Z,13.48
2023-05-14T13:56:23.382Z,12.85
2023-05-14T13:58:50.240Z,12.85
2023-05-14T14:01:17.021Z,11.63
2023-05-14T14:03:43.866Z,12.13
2023-05-14T14:06:10.812Z,11.13
2023-05-14T14:08:37.741Z,11.73
2023-05-14T14:11:04.800Z,10.77
2023-05-14T14:13:31.748Z,10.57
2023-05-14T14:15:58.611Z,10.57
2023-05-14T14:18:25.579Z,11.80
2023-05-14T14:20:52.603Z,11.43
2023-05-14T14:23:19.668Z,10.65
2023-05-14T14:25:46.602Z,10.18
2023-05-14T14:28:13.794Z,10.10
2023-05-14T14:30:41.096Z,9.60
2023-05-14T14:33:08.108Z,8.98
2023-05-14T14:35:35.823Z,8.00
2023-05-14T14:38:02.805Z,8.07
2023-05-14T14:40:30.173Z,8.77
2023-05-14T14:42:56.962Z,8.70
2023-05-14T14:45:23.875Z,8.32
2023-05-14T14:47:51.227Z,8.60
2023-05-14T14:50:18.158Z,8.07
2023-05-14T14:52:46.036Z,7.43
2023-05-14T14:55:13.100Z,7.03
2023-05-14T14:57:40.032Z,7.35
2023-05-14T15:00:07.544Z,7.85
2023-05-14T15:02:34.946Z,8.07
2023-05-14T15:05:01.932Z,9.35
2023-05-14T15:07:32.715Z,8.57
2023-05-14T15:09:59.741Z,8.27
2023-05-14T15:12:26.663Z,7.22
2023-05-14T15:14:53.479Z,8.07
2023-05-14T15:17:22.817Z,8.20
2023-05-14T15:19:52.471Z,7.05
2023-05-14T15:22:19.271Z,8.02
2023-05-14T15:24:46.021Z,7.07
2023-05-14T15:27:12.811Z,7.07
2023-05-14T15:29:39.884Z,7.53
2023-05-14T15:32:07.082Z,7.13
2023-05-14T15:34:33.832Z,7.03
2023-05-14T15:37:00.806Z,7.35
2023-05-14T15:39:29.584Z,8.90
2023-05-14T15:41:56.941Z,7.20
2023-05-14T15:44:23.794Z,11.38
2023-05-14T15:46:51.020Z,8.88
2023-05-14T15:49:17.878Z,7.60
2023-05-14T15:51:44.662Z,11.70
2023-05-14T15:54:11.513Z,17.70
2023-05-14T15:56:38.324Z,10.13
2023-05-14T15:59:05.142Z,11.18
2023-05-14T16:01:31.996Z,14.95
2023-05-14T16:03:58.906Z,8.82
2023-05-14T16:06:26.168Z,11.48
2023-05-14T16:08:53.253Z,7.97
2023-05-14T16:11:20.088Z,9.65
2023-05-14T16:13:47.025Z,8.85
2023-05-14T16:16:13.833Z,9.00
2023-05-14T16:18:42.706Z,7.75
2023-05-14T16:21:09.513Z,8.40
2023-05-14T16:23:36.262Z,9.38
2023-05-14T16:26:03.019Z,7.65
2023-05-14T16:28:32.414Z,6.72
2023-05-14T16:31:00.338Z,11.88
2023-05-14T16:33:29.134Z,9.18
2023-05-14T16:35:55.927Z,8.27
2023-05-14T16:38:22.740Z,8.73
2023-05-14T16:40:49.625Z,7.57
2023-05-14T16:43:16.547Z,8.45
2023-05-14T16:45:45.892Z,8.45
2023-05-14T16:48:23.785Z,7.47
2023-05-14T16:50:51.505Z,8.13
2023-05-14T16:53:18.428Z,8.52
2023-05-14T16:55:45.308Z,7.53
2023-05-14T16:58:12.198Z,7.82
2023-05-14T17:00:39.028Z,6.75
2023-05-14T17:03:06.700Z,6.25
2023-05-14T17:05:34.369Z,7.68
2023-05-14T17:08:01.859Z,7.95
2023-05-14T17:10:30.261Z,6.72
2023-05-14T17:12:57.145Z,7.95
2023-05-14T17:15:24.189Z,6.93
2023-05-14T17:17:51.282Z,6.68
2023-05-14T17:20:24.395Z,6.60
2023-05-14T17:25:18.291Z,5.60
2023-05-14T17:27:45.128Z,6.13
2023-05-14T17:30:12.371Z,5.25
2023-05-14T17:32:39.311Z,6.78
2023-05-14T17:35:06.437Z,7.70
2023-05-14T17:37:33.333Z,6.80
2023-05-14T17:40:01.040Z,7.90
2023-05-14T17:42:27.779Z,20.75
2023-05-14T17:44:54.571Z,8.13
2023-05-14T17:47:21.405Z,8.80
2023-05-14T17:49:48.252Z,6.07
2023-05-14T17:52:15.149Z,6.53
2023-05-14T17:54:41.942Z,5.75
2023-05-14T17:57:08.779Z,6.97
2023-05-14T17:59:35.564Z,5.82
2023-05-14T18:02:02.428Z,5.68
2023-05-14T18:04:29.285Z,4.82
2023-05-14T18:06:56.195Z,5.65
2023-05-14T18:09:22.999Z,4.63
2023-05-14T18:11:49.843Z,4.82
2023-05-14T18:14:17.656Z,4.97
2023-05-14T18:16:44.778Z,5.38
2023-05-14T18:19:11.835Z,4.22
2023-05-14T18:21:38.772Z,5.40
2023-05-14T18:24:06.082Z,5.95
2023-05-14T18:26:34.374Z,7.20
2023-05-14T18:29:01.310Z,8.27
2023-05-14T18:31:28.542Z,9.88
2023-05-14T18:33:55.702Z,8.40
2023-05-14T18:36:22.912Z,9.88
2023-05-14T18:38:49.785Z,7.80
2023-05-14T18:41:16.592Z,8.82
2023-05-14T18:43:43.534Z,10.23
2023-05-14T18:46:12.286Z,8.57
2023-05-14T18:48:39.740Z,9.38
2023-05-14T18:51:06.658Z,11.45
2023-05-14T18:53:33.717Z,12.77
2023-05-14T18:56:03.201Z,16.45
2023-05-14T18:58:30.090Z,20.73
2023-05-14T19:00:59.028Z,20.23
2023-05-14T19:03:26.131Z,19.38
2023-05-14T19:05:53.735Z,20.30
2023-05-14T19:08:20.668Z,20.63
2023-05-14T19:10:47.538Z,19.05
2023-05-14T19:13:16.550Z,21.02
2023-05-14T19:15:43.627Z,20.15
2023-05-14T19:18:10.889Z,24.05
2023-05-14T19:20:37.770Z,21.42
2023-05-14T19:23:04.608Z,22.10
2023-05-14T19:25:31.519Z,22.48
2023-05-14T19:28:01.448Z,20.70
2023-05-14T19:30:28.307Z,24.85
2023-05-14T19:32:55.222Z,23.45
2023-05-14T19:35:22.289Z,23.52
2023-05-14T19:37:49.328Z,22.77
2023-05-14T19:40:16.197Z,21.23
2023-05-14T19:42:44.204Z,24.27
2023-05-14T19:45:11.494Z,22.08
2023-05-14T19:47:38.438Z,22.65
2023-05-14T19:50:05.793Z,22.90
2023-05-14T19:52:32.642Z,22.33
2023-05-14T19:54:59.442Z,18.70
2023-05-14T19:57:26.739Z,14.60
2023-05-14T19:59:53.702Z,10.98
2023-05-14T20:02:21.810Z,10.98
2023-05-14T20:04:49.528Z,9.60
2023-05-14T20:07:17.829Z,10.07
2023-05-14T20:09:44.816Z,10.05
2023-05-14T20:12:12.905Z,6.40
2023-05-14T20:14:40.984Z,4.70
2023-05-14T20:17:07.954Z,3.35
2023-05-14T20:19:35.083Z,3.78
2023-05-14T20:22:01.844Z,3.85
2023-05-14T20:24:28.992Z,3.58
2023-05-14T20:26:56.699Z,7.38
2023-05-14T20:29:23.599Z,5.47
2023-05-14T20:31:50.443Z,6.80
2023-05-14T20:34:17.181Z,9.43
2023-05-14T20:36:44.366Z,10.70
2023-05-14T20:39:11.788Z,6.55
2023-05-14T20:41:38.679Z,4.38
2023-05-14T20:44:05.735Z,5.10
2023-05-14T20:46:32.676Z,7.75
2023-05-14T20:49:00.950Z,5.68
2023-05-14T20:51:28.562Z,6.75
2023-05-14T20:53:55.406Z,3.63
2023-05-14T20:56:22.586Z,3.42
2023-05-14T20:58:49.480Z,2.42
2023-05-14T21:01:16.281Z,3.50
2023-05-14T21:03:43.829Z,2.67
2023-05-14T21:06:10.886Z,3.40
2023-05-14T21:08:39.240Z,2.35
2023-05-14T21:11:06.499Z,1.63
2023-05-14T21:13:33.340Z,3.17
2023-05-14T21:16:00.440Z,2.83
2023-05-14T21:18:30.708Z,3.80
2023-05-14T21:20:57.681Z,2.20
2023-05-14T21:23:24.557Z,2.25
2023-05-14T21:25:54.601Z,2.17
2023-05-14T21:28:24.521Z,1.10
2023-05-14T21:30:52.998Z,1.42
2023-05-14T21:33:19.922Z,3.70
2023-05-14T21:35:46.736Z,1.25
2023-05-14T21:38:13.541Z,1.00
2023-05-14T21:40:40.377Z,2.55
2023-05-14T21:43:07.155Z,1.92
2023-05-14T21:45:33.979Z,3.90
2023-05-14T21:48:00.842Z,1.23
2023-05-14T21:50:27.786Z,0.85
2023-05-14T21:52:54.568Z,1.73
2023-05-14T21:55:21.487Z,1.35
2023-05-14T21:57:48.342Z,2.15
2023-05-14T22:00:18.652Z,1.90
2023-05-14T22:02:45.453Z,1.05
2023-05-14T22:05:12.421Z,1.33
2023-05-14T22:07:39.330Z,1.63
2023-05-14T22:10:07.141Z,1.55
2023-05-14T22:12:33.949Z,1.08
2023-05-14T22:15:00.776Z,1.88
2023-05-14T22:17:30.351Z,1.23
2023-05-14T22:19:57.204Z,0.98
2023-05-14T22:22:24.161Z,2.33
2023-05-14T22:24:50.981Z,1.55
2023-05-14T22:27:18.088Z,1.42
2023-05-14T22:29:44.939Z,0.82
2023-05-14T22:32:11.711Z,1.52
2023-05-14T22:34:38.539Z,0.95
2023-05-14T22:37:06.162Z,1.23
2023-05-14T22:39:32.904Z,0.98
2023-05-14T22:41:59.848Z,1.05
2023-05-14T22:44:29.107Z,1.70
2023-05-14T22:46:56.757Z,1.00
2023-05-14T22:49:23.664Z,1.98
2023-05-14T22:51:54.109Z,1.33
2023-05-14T22:54:21.214Z,2.05
2023-05-14T22:56:48.036Z,1.88
2023-05-14T22:59:14.804Z,1.73
2023-05-14T23:01:41.721Z,1.83
2023-05-14T23:04:08.602Z,1.00
2023-05-14T23:06:35.440Z,1.35
2023-05-14T23:09:02.361Z,2.17
2023-05-14T23:11:29.368Z,1.00
2023-05-14T23:13:56.165Z,2.22
2023-05-14T23:16:22.915Z,2.55
2023-05-14T23:18:49.873Z,1.02
2023-05-14T23:21:16.771Z,1.30
2023-05-14T23:23:43.662Z,1.88
2023-05-14T23:26:10.530Z,1.35
2023-05-14T23:28:37.365Z,1.17
2023-05-14T23:31:04.232Z,3.10
2023-05-14T23:33:30.997Z,0.90
2023-05-14T23:35:57.777Z,2.08
2023-05-14T23:38:24.510Z,2.88
2023-05-14T23:40:51.273Z,1.85
2023-05-14T23:43:18.097Z,1.63
2023-05-14T23:45:44.950Z,1.45
2023-05-14T23:48:11.723Z,1.83
2023-05-14T23:50:38.455Z,1.45
2023-05-14T23:53:05.225Z,2.22
2023-05-14T23:55:32.007Z,1.55
2023-05-14T23:57:58.792Z,1.70
